Time;durP1;ratioP1;P1;durP2;ratioP2;P2;SDS_P1;SDS_P2;PMS_P1;PMS_P2;Temp;Humidity;BMP_temperature;BMP_pressure;BME280_temperature;BME280_humidity;BME280_pressure;Samples;Min_cycle;Max_cycle;Signal;HPM_P1;HPM_P2
2022/12/09 00:00:54;;;;;;;22.17;12.03;;;1.00;99.90;;;;;;5069088;28;20626;-49
2022/12/09 00:03:21;;;;;;;20.37;11.93;;;0.90;99.90;;;;;;5070141;28;20280;-49
2022/12/09 00:05:49;;;;;;;19.17;12.60;;;0.90;99.90;;;;;;5074124;28;20703;-49
2022/12/09 00:08:16;;;;;;;20.33;12.87;;;1.00;99.90;;;;;;5075527;28;20220;-49
2022/12/09 00:10:44;;;;;;;20.90;12.90;;;1.10;99.90;;;;;;5072846;28;20660;-49
2022/12/09 00:13:11;;;;;;;18.30;11.63;;;1.10;99.90;;;;;;5067808;28;20294;-49
2022/12/09 00:15:42;;;;;;;21.00;11.97;;;1.00;99.90;;;;;;5075701;28;20228;-48
2022/12/09 00:18:09;;;;;;;19.10;11.10;;;1.00;99.90;;;;;;5065926;28;20238;-49
2022/12/09 00:20:36;;;;;;;15.90;11.30;;;0.90;99.90;;;;;;5069772;28;20199;-49
2022/12/09 00:23:04;;;;;;;19.10;12.03;;;1.00;99.90;;;;;;5066523;28;20194;-49
2022/12/09 00:25:31;;;;;;;18.20;10.93;;;1.00;99.90;;;;;;5075234;28;20237;-49
2022/12/09 00:27:58;;;;;;;17.93;11.27;;;1.00;99.90;;;;;;5074141;28;20228;-49
2022/12/09 00:30:25;;;;;;;26.70;10.70;;;0.90;99.90;;;;;;5075172;28;20627;-50
2022/12/09 00:32:54;;;;;;;15.13;9.63;;;0.90;99.90;;;;;;5072652;28;20252;-48
2022/12/09 00:35:21;;;;;;;18.50;9.70;;;0.90;99.90;;;;;;5074243;28;20208;-49
2022/12/09 00:37:48;;;;;;;15.77;9.90;;;0.90;99.90;;;;;;5074806;28;20712;-50
2022/12/09 00:40:15;;;;;;;14.87;9.83;;;0.90;99.90;;;;;;5075015;28;20560;-48
2022/12/09 00:42:42;;;;;;;15.73;9.37;;;0.90;99.90;;;;;;5074866;28;20675;-49
2022/12/09 00:45:10;;;;;;;15.20;10.10;;;0.90;99.90;;;;;;5073481;28;20256;-48
2022/12/09 00:47:37;;;;;;;17.93;11.17;;;0.90;99.90;;;;;;5073931;28;20216;-50
2022/12/09 00:50:07;;;;;;;15.27;10.07;;;0.90;99.90;;;;;;5074597;28;20708;-50
2022/12/09 00:52:34;;;;;;;13.20;9.93;;;0.90;99.90;;;;;;5074595;28;20286;-49
2022/12/09 00:55:01;;;;;;;15.03;10.23;;;0.90;99.90;;;;;;5073192;28;20256;-51
2022/12/09 00:57:28;;;;;;;15.60;10.07;;;0.90;99.90;;;;;;5065473;28;20222;-49
2022/12/09 00:59:55;;;;;;;13.80;9.33;;;0.90;99.90;;;;;;5072554;28;20220;-49
2022/12/09 01:02:22;;;;;;;14.37;10.47;;;0.90;99.90;;;;;;5070672;28;20579;-48
2022/12/09 01:04:51;;;;;;;17.43;9.87;;;0.90;99.90;;;;;;5074036;28;20275;-49
2022/12/09 01:07:19;;;;;;;15.40;9.00;;;0.90;99.90;;;;;;5074425;28;20325;-49
2022/12/09 01:09:46;;;;;;;15.43;9.30;;;0.90;99.90;;;;;;5064306;28;20209;-48
2022/12/09 01:12:13;;;;;;;16.23;10.67;;;1.00;99.90;;;;;;5074327;28;20621;-49
2022/12/09 01:14:40;;;;;;;19.80;11.33;;;1.00;99.90;;;;;;5072487;28;20205;-49
2022/12/09 01:17:07;;;;;;;14.83;10.47;;;0.90;99.90;;;;;;5065832;28;20248;-49
2022/12/09 01:19:34;;;;;;;15.03;10.37;;;0.90;99.90;;;;;;5070571;28;20234;-48
2022/12/09 01:22:01;;;;;;;17.73;11.53;;;0.90;99.90;;;;;;5069283;28;20194;-49
2022/12/09 01:24:29;;;;;;;18.33;12.40;;;0.90;99.90;;;;;;5073405;28;20276;-49
2022/12/09 01:26:56;;;;;;;18.33;12.07;;;0.90;99.90;;;;;;5073953;28;20209;-49
2022/12/09 01:29:23;;;;;;;20.53;13.50;;;1.00;99.90;;;;;;5074134;28;20619;-49
2022/12/09 01:31:50;;;;;;;14.73;10.43;;;1.00;99.90;;;;;;5073349;28;20202;-49
2022/12/09 01:34:17;;;;;;;19.70;12.50;;;1.00;99.90;;;;;;5071262;28;20203;-49
2022/12/09 01:36:46;;;;;;;17.50;11.50;;;0.90;99.90;;;;;;5073832;28;20232;-50
2022/12/09 01:39:13;;;;;;;17.50;10.43;;;0.90;99.90;;;;;;5073892;28;20230;-49
2022/12/09 01:41:42;;;;;;;14.63;10.23;;;0.90;99.90;;;;;;5073770;28;20271;-49
2022/12/09 01:44:16;;;;;;;17.43;12.27;;;0.90;99.90;;;;;;5072962;28;20206;-48
2022/12/09 01:46:44;;;;;;;14.73;10.30;;;0.90;99.90;;;;;;5069769;28;20618;-48
2022/12/09 01:49:17;;;;;;;16.47;11.00;;;1.00;99.90;;;;;;5073808;28;20214;-49
2022/12/09 01:51:49;;;;;;;16.67;10.93;;;0.90;99.90;;;;;;5073948;28;20209;-49
2022/12/09 01:54:17;;;;;;;15.30;10.53;;;0.90;99.90;;;;;;5073296;28;20198;-51
2022/12/09 01:56:45;;;;;;;14.67;11.17;;;1.00;99.90;;;;;;5074114;28;20590;-50
2022/12/09 01:59:15;;;;;;;18.67;11.30;;;1.00;99.90;;;;;;5065677;28;20238;-48
2022/12/09 02:01:45;;;;;;;16.93;10.80;;;0.90;99.90;;;;;;5071510;28;20270;-49
2022/12/09 02:04:12;;;;;;;15.43;10.67;;;0.90;99.90;;;;;;5067133;28;20204;-49
2022/12/09 02:06:39;;;;;;;18.77;11.10;;;0.90;99.90;;;;;;5070494;28;20257;-50
2022/12/09 02:09:07;;;;;;;15.20;10.53;;;0.90;99.90;;;;;;5072885;28;20267;-49
2022/12/09 02:11:44;;;;;;;13.87;9.37;;;1.00;99.90;;;;;;5071220;28;20698;-50
2022/12/09 02:14:18;;;;;;;12.50;10.13;;;1.00;99.90;;;;;;5072826;28;20337;-48
2022/12/09 02:16:55;;;;;;;13.40;9.77;;;1.00;99.90;;;;;;5064457;28;20210;-50
2022/12/09 02:19:41;;;;;;;15.87;10.40;;;1.00;99.90;;;;;;5070819;28;20211;-48
2022/12/09 02:22:12;;;;;;;16.10;10.47;;;1.00;99.90;;;;;;5070109;28;20228;-49
2022/12/09 02:24:50;;;;;;;13.40;9.60;;;0.90;99.90;;;;;;5062140;28;20206;-49
2022/12/09 02:27:22;;;;;;;17.50;11.03;;;0.90;99.90;;;;;;5073103;28;20265;-50
2022/12/09 02:30:04;;;;;;;18.53;10.80;;;1.00;99.90;;;;;;5073017;28;20203;-50
2022/12/09 02:33:04;;;;;;;21.00;11.60;;;1.00;99.90;;;;;;5072198;28;20213;-49
2022/12/09 02:35:37;;;;;;;15.37;10.63;;;0.90;99.90;;;;;;5040933;28;20202;-47
2022/12/09 02:38:09;;;;;;;17.70;11.40;;;0.90;99.90;;;;;;5072771;28;20215;-50
2022/12/09 02:40:42;;;;;;;18.07;10.50;;;0.80;99.90;;;;;;5072883;28;20699;-50
2022/12/09 02:43:10;;;;;;;17.07;10.37;;;0.80;99.90;;;;;;5063020;28;20291;-47
2022/12/09 02:45:40;;;;;;;15.07;9.70;;;0.80;99.90;;;;;;5073114;28;20200;-50
2022/12/09 02:48:09;;;;;;;17.37;11.47;;;0.80;99.90;;;;;;5070709;28;20285;-49
2022/12/09 02:50:40;;;;;;;15.37;10.80;;;0.80;99.90;;;;;;5068369;28;20230;-49
2022/12/09 02:53:10;;;;;;;14.93;9.90;;;0.80;99.90;;;;;;5072786;28;20263;-49
2022/12/09 02:55:39;;;;;;;14.33;9.67;;;0.80;99.90;;;;;;5072309;28;20289;-49
2022/12/09 02:58:06;;;;;;;15.33;10.37;;;0.80;99.90;;;;;;5065979;28;20604;-50
2022/12/09 03:00:33;;;;;;;17.47;10.40;;;0.80;99.90;;;;;;5067738;28;20224;-49
2022/12/09 03:03:03;;;;;;;15.67;10.13;;;0.80;99.90;;;;;;5070629;28;20198;-50
2022/12/09 03:05:44;;;;;;;13.33;9.37;;;0.80;99.90;;;;;;5072906;28;20198;-50
2022/12/09 03:08:17;;;;;;;15.53;9.20;;;0.90;99.90;;;;;;5072720;28;20226;-50
2022/12/09 03:10:53;;;;;;;15.10;10.73;;;0.90;99.90;;;;;;5071629;28;20194;-50
2022/12/09 03:13:35;;;;;;;16.07;10.03;;;0.90;99.90;;;;;;5070013;28;20611;-49
2022/12/09 03:16:10;;;;;;;15.77;10.10;;;0.90;99.90;;;;;;5064308;28;20195;-49
2022/12/09 03:18:42;;;;;;;15.43;10.13;;;0.90;99.90;;;;;;5072512;28;20232;-49
2022/12/09 03:21:14;;;;;;;13.07;9.80;;;1.10;99.90;;;;;;5072576;28;20256;-48
2022/12/09 03:23:43;;;;;;;14.73;10.50;;;0.90;99.90;;;;;;5070200;28;20664;-49
2022/12/09 03:26:12;;;;;;;12.40;9.33;;;0.90;99.90;;;;;;5071596;28;20210;-48
2022/12/09 03:28:43;;;;;;;14.10;9.87;;;0.90;99.90;;;;;;5072056;28;20225;-49
2022/12/09 03:31:14;;;;;;;14.93;10.63;;;0.90;99.90;;;;;;5070727;28;20252;-49
2022/12/09 03:33:43;;;;;;;18.10;10.53;;;0.90;99.90;;;;;;5063202;28;20201;-50
2022/12/09 03:36:13;;;;;;;18.30;11.70;;;0.90;99.90;;;;;;5072704;28;20202;-49
2022/12/09 03:38:43;;;;;;;14.67;9.17;;;0.90;99.90;;;;;;5070373;28;20252;-49
2022/12/09 03:41:18;;;;;;;17.07;11.07;;;0.90;99.90;;;;;;5072030;28;20202;-49
2022/12/09 03:43:51;;;;;;;15.67;10.37;;;0.80;99.90;;;;;;5071666;28;20209;-49
2022/12/09 03:46:19;;;;;;;14.93;10.40;;;0.90;99.90;;;;;;5072114;28;20298;-49
2022/12/09 03:48:47;;;;;;;16.87;10.13;;;0.90;99.90;;;;;;5071006;28;20225;-50
2022/12/09 03:51:21;;;;;;;13.90;10.80;;;0.90;99.90;;;;;;5070178;28;20350;-49
2022/12/09 03:53:54;;;;;;;19.37;12.37;;;0.90;99.90;;;;;;5071254;28;20675;-48
2022/12/09 03:56:23;;;;;;;15.17;10.03;;;1.00;99.90;;;;;;5072372;28;20206;-49
2022/12/09 03:58:54;;;;;;;16.03;11.03;;;1.00;99.90;;;;;;5070296;28;20235;-51
2022/12/09 04:01:24;;;;;;;16.47;10.80;;;1.00;99.90;;;;;;5070678;28;20207;-49
2022/12/09 04:03:54;;;;;;;18.63;10.77;;;1.00;99.90;;;;;;5069163;28;20318;-49
2022/12/09 04:06:23;;;;;;;17.27;11.20;;;1.00;99.90;;;;;;5061363;28;20207;-49
2022/12/09 04:08:50;;;;;;;15.63;10.00;;;1.00;99.90;;;;;;5068128;28;20252;-49
2022/12/09 04:11:17;;;;;;;19.90;10.93;;;1.00;99.90;;;;;;5072125;28;20292;-49
2022/12/09 04:13:44;;;;;;;18.73;10.97;;;1.10;99.90;;;;;;5068806;28;20198;-49
2022/12/09 04:16:11;;;;;;;13.50;9.37;;;1.10;99.90;;;;;;5063763;28;20311;-49
2022/12/09 04:18:38;;;;;;;16.80;11.17;;;1.10;99.90;;;;;;5070557;28;20853;-50
2022/12/09 04:21:07;;;;;;;13.83;10.43;;;1.10;99.90;;;;;;5071874;28;20236;-49
2022/12/09 04:23:35;;;;;;;14.63;9.93;;;1.10;99.90;;;;;;5071386;28;20200;-49
2022/12/09 04:26:03;;;;;;;16.57;9.93;;;1.10;99.90;;;;;;5071877;28;20208;-49
2022/12/09 04:28:30;;;;;;;16.13;10.27;;;1.10;99.90;;;;;;5070008;28;20231;-49
2022/12/09 04:30:57;;;;;;;15.87;10.60;;;1.10;99.90;;;;;;5068426;28;20204;-49
2022/12/09 04:33:24;;;;;;;16.33;9.87;;;1.10;99.90;;;;;;5070755;28;20202;-49
2022/12/09 04:35:51;;;;;;;16.33;11.60;;;1.10;99.90;;;;;;5071920;28;20208;-51
2022/12/09 04:38:18;;;;;;;17.43;10.80;;;1.10;99.90;;;;;;5070544;28;20774;-49
2022/12/09 04:40:46;;;;;;;21.23;11.57;;;1.20;99.90;;;;;;5068522;28;20263;-51
2022/12/09 04:43:13;;;;;;;14.73;9.60;;;1.10;99.90;;;;;;5068062;28;20210;-52
2022/12/09 04:45:40;;;;;;;15.63;10.77;;;1.20;99.90;;;;;;5075276;28;20229;-50
2022/12/09 04:48:07;;;;;;;16.00;11.20;;;1.30;99.90;;;;;;5075269;28;20221;-49
2022/12/09 04:50:34;;;;;;;15.77;10.40;;;1.30;99.90;;;;;;5066142;28;20572;-49
2022/12/09 04:53:01;;;;;;;19.50;10.17;;;1.30;99.90;;;;;;5066783;28;20275;-51
2022/12/09 04:55:28;;;;;;;15.97;10.87;;;1.20;99.90;;;;;;5073403;28;20659;-53
2022/12/09 04:57:57;;;;;;;16.57;11.33;;;1.20;99.90;;;;;;5075279;28;20636;-50
2022/12/09 05:00:24;;;;;;;18.27;11.37;;;1.20;99.90;;;;;;5073516;28;20252;-49
2022/12/09 05:02:51;;;;;;;16.20;10.37;;;1.20;99.90;;;;;;5071140;28;20198;-48
2022/12/09 05:05:18;;;;;;;14.77;9.20;;;1.20;99.90;;;;;;5068460;28;20618;-48
2022/12/09 05:07:45;;;;;;;15.87;9.53;;;1.20;99.90;;;;;;5073632;28;20218;-49
2022/12/09 05:10:12;;;;;;;13.47;9.07;;;1.20;99.90;;;;;;5075027;28;20217;-50
2022/12/09 05:12:39;;;;;;;15.07;10.57;;;1.20;99.90;;;;;;5074881;28;20214;-49
2022/12/09 05:15:08;;;;;;;11.13;8.80;;;1.30;99.90;;;;;;5068283;28;20225;-49
2022/12/09 05:17:35;;;;;;;12.40;8.47;;;1.20;99.90;;;;;;5071119;28;20218;-50
2022/12/09 05:20:03;;;;;;;13.80;8.87;;;1.20;99.90;;;;;;5072331;28;20222;-49
2022/12/09 05:22:30;;;;;;;15.07;8.67;;;1.30;99.90;;;;;;5074078;28;20240;-49
2022/12/09 05:24:57;;;;;;;15.70;9.47;;;1.30;99.90;;;;;;5073516;28;20199;-49
2022/12/09 05:27:24;;;;;;;13.27;8.50;;;1.30;99.90;;;;;;5072805;28;20284;-49
2022/12/09 05:29:51;;;;;;;12.90;9.43;;;1.30;99.90;;;;;;5071960;28;20202;-48
2022/12/09 05:32:20;;;;;;;10.33;7.87;;;1.20;99.90;;;;;;5073837;28;20198;-50
2022/12/09 05:34:47;;;;;;;16.87;9.37;;;1.30;99.90;;;;;;5073486;28;20640;-50
2022/12/09 05:37:14;;;;;;;13.70;8.93;;;1.30;99.90;;;;;;5073988;28;20268;-49
2022/12/09 05:39:42;;;;;;;12.73;8.30;;;1.20;99.90;;;;;;5065547;28;20345;-48
2022/12/09 05:42:09;;;;;;;14.30;9.43;;;1.20;99.90;;;;;;5065203;28;20213;-49
2022/12/09 05:44:40;;;;;;;13.13;8.63;;;1.20;99.90;;;;;;5073092;28;20202;-48
2022/12/09 05:47:07;;;;;;;14.47;9.97;;;1.20;99.90;;;;;;5073986;28;20201;-49
2022/12/09 05:49:37;;;;;;;9.57;8.57;;;1.30;99.90;;;;;;5081886;28;20637;-48
2022/12/09 05:52:05;;;;;;;13.67;9.23;;;1.30;99.90;;;;;;5062641;28;20289;-48
2022/12/09 05:54:32;;;;;;;14.13;9.83;;;1.30;99.90;;;;;;5073105;28;20202;-49
2022/12/09 05:56:59;;;;;;;17.33;11.53;;;1.30;99.90;;;;;;5067401;28;20661;-50
2022/12/09 05:59:27;;;;;;;16.67;11.87;;;1.20;99.90;;;;;;5071816;28;20206;-48
2022/12/09 06:01:54;;;;;;;17.63;12.30;;;1.20;99.90;;;;;;5071101;28;20202;-49
2022/12/09 06:04:21;;;;;;;22.20;14.23;;;1.20;99.90;;;;;;5072629;28;20252;-49
2022/12/09 06:06:49;;;;;;;20.47;13.13;;;1.20;99.90;;;;;;5073622;28;20893;-48
2022/12/09 06:09:16;;;;;;;26.93;14.87;;;1.20;99.90;;;;;;5066091;28;20728;-48
2022/12/09 06:11:44;;;;;;;23.93;13.47;;;1.20;99.90;;;;;;5071227;28;20198;-49
2022/12/09 06:14:11;;;;;;;24.47;14.23;;;1.20;99.90;;;;;;5064085;28;20213;-49
2022/12/09 06:16:40;;;;;;;19.60;13.03;;;1.20;99.90;;;;;;5063740;28;20207;-50
2022/12/09 06:19:07;;;;;;;18.23;12.17;;;1.30;99.90;;;;;;5072140;28;20226;-50
2022/12/09 06:21:34;;;;;;;22.30;12.83;;;1.30;99.90;;;;;;5064128;28;20229;-49
2022/12/09 06:24:04;;;;;;;20.70;12.03;;;1.30;99.90;;;;;;5057003;28;20230;-49
2022/12/09 06:26:31;;;;;;;17.60;10.90;;;1.30;99.90;;;;;;5073106;28;20198;-49
2022/12/09 06:28:59;;;;;;;19.70;12.63;;;1.30;99.90;;;;;;5073024;28;20226;-49
2022/12/09 06:31:27;;;;;;;20.37;11.53;;;1.40;99.90;;;;;;5071672;28;20198;-50
2022/12/09 06:33:54;;;;;;;18.83;10.37;;;1.30;99.90;;;;;;5072126;28;20206;-48
2022/12/09 06:36:21;;;;;;;17.30;11.43;;;1.30;99.90;;;;;;5071076;28;20259;-48
2022/12/09 06:38:48;;;;;;;17.57;12.57;;;1.30;99.90;;;;;;5072341;28;20769;-50
2022/12/09 06:41:17;;;;;;;17.50;10.73;;;1.30;99.90;;;;;;5072711;28;20253;-49
2022/12/09 06:43:44;;;;;;;16.13;11.63;;;1.30;99.90;;;;;;5067875;28;20198;-49
2022/12/09 06:46:13;;;;;;;14.40;11.00;;;1.40;99.90;;;;;;5063178;28;20202;-49
2022/12/09 06:48:40;;;;;;;19.33;11.00;;;1.40;99.90;;;;;;5068169;28;20645;-50
2022/12/09 06:51:07;;;;;;;15.10;10.00;;;1.40;99.90;;;;;;5072114;28;20281;-51
2022/12/09 06:53:34;;;;;;;15.00;10.20;;;1.40;99.90;;;;;;5069278;28;20229;-51
2022/12/09 06:56:03;;;;;;;18.70;11.53;;;1.40;99.90;;;;;;5069625;28;20659;-49
2022/12/09 06:58:32;;;;;;;17.43;12.03;;;1.40;99.90;;;;;;5066678;28;20223;-48
2022/12/09 07:01:05;;;;;;;21.57;11.97;;;1.40;99.90;;;;;;5066944;28;20224;-49
2022/12/09 07:03:32;;;;;;;15.10;10.70;;;1.40;99.90;;;;;;5065784;28;20233;-48
2022/12/09 07:05:59;;;;;;;15.70;10.80;;;1.40;99.90;;;;;;5068200;28;20260;-49
2022/12/09 07:08:26;;;;;;;20.90;11.10;;;1.40;99.90;;;;;;5065287;28;20288;-49
2022/12/09 07:10:53;;;;;;;17.43;11.37;;;1.50;99.90;;;;;;5067643;28;20198;-51
2022/12/09 07:13:20;;;;;;;14.70;9.33;;;1.50;99.90;;;;;;5069780;28;20237;-49
2022/12/09 07:15:48;;;;;;;16.80;10.87;;;1.50;99.90;;;;;;5072011;28;20201;-50
2022/12/09 07:18:15;;;;;;;14.80;10.33;;;1.50;99.90;;;;;;5064987;28;20219;-49
2022/12/09 07:20:42;;;;;;;19.23;12.20;;;1.50;99.90;;;;;;5069028;28;20215;-49
2022/12/09 07:23:10;;;;;;;17.67;11.40;;;1.50;99.90;;;;;;5065449;28;20208;-49
2022/12/09 07:25:37;;;;;;;22.53;12.60;;;1.60;99.90;;;;;;5058382;28;20291;-50
2022/12/09 07:28:04;;;;;;;15.60;10.43;;;1.50;99.90;;;;;;5068202;28;20983;-49
2022/12/09 07:30:31;;;;;;;18.70;11.13;;;1.50;99.90;;;;;;5068469;28;20617;-49
2022/12/09 07:32:59;;;;;;;21.17;11.30;;;1.50;99.90;;;;;;5071528;28;20267;-49
2022/12/09 07:35:26;;;;;;;16.83;11.77;;;1.50;99.90;;;;;;5063191;28;20201;-50
2022/12/09 07:37:54;;;;;;;16.00;10.90;;;1.60;99.90;;;;;;5070288;28;20222;-48
2022/12/09 07:40:21;;;;;;;15.93;11.10;;;1.60;99.90;;;;;;5071842;28;20280;-49
2022/12/09 07:42:48;;;;;;;22.83;13.23;;;1.60;99.90;;;;;;5071844;28;20247;-50
2022/12/09 07:45:16;;;;;;;14.93;11.90;;;1.60;99.90;;;;;;5071976;28;20202;-48
2022/12/09 07:47:43;;;;;;;19.80;11.57;;;1.70;99.90;;;;;;5069853;28;20264;-49
2022/12/09 07:50:12;;;;;;;17.73;12.80;;;1.70;99.90;;;;;;5071509;28;20734;-48
2022/12/09 07:52:39;;;;;;;20.80;12.30;;;1.70;99.90;;;;;;5071833;28;20267;-49
2022/12/09 07:55:07;;;;;;;17.13;11.97;;;1.70;99.90;;;;;;5068593;28;20196;-50
2022/12/09 07:57:35;;;;;;;21.50;13.00;;;1.80;99.90;;;;;;5063404;28;20299;-49
2022/12/09 08:00:02;;;;;;;17.47;12.47;;;1.80;99.90;;;;;;5070334;28;20201;-48
2022/12/09 08:02:29;;;;;;;20.90;12.87;;;1.80;99.90;;;;;;5071329;28;20195;-48
2022/12/09 08:04:56;;;;;;;21.70;14.27;;;1.80;99.90;;;;;;5063775;28;20206;-49
2022/12/09 08:07:24;;;;;;;17.17;12.47;;;1.70;99.90;;;;;;5058811;28;20226;-49
2022/12/09 08:09:53;;;;;;;21.43;13.37;;;1.70;99.90;;;;;;5056514;28;20201;-48
2022/12/09 08:12:20;;;;;;;24.27;15.10;;;1.70;99.90;;;;;;5063911;28;20293;-48
2022/12/09 08:14:47;;;;;;;18.70;13.13;;;1.70;99.90;;;;;;5065965;28;20244;-49
2022/12/09 08:17:14;;;;;;;19.13;13.13;;;1.70;99.90;;;;;;5067449;28;20226;-48
2022/12/09 08:19:44;;;;;;;19.53;12.77;;;1.70;99.90;;;;;;5073194;28;20230;-49
2022/12/09 08:22:11;;;;;;;19.50;11.80;;;1.80;99.90;;;;;;5070896;28;20225;-49
2022/12/09 08:24:43;;;;;;;17.60;10.67;;;1.80;99.90;;;;;;5073885;28;20267;-49
2022/12/09 08:27:10;;;;;;;21.73;13.53;;;1.80;99.90;;;;;;5067132;28;20777;-49
2022/12/09 08:29:36;;;;;;;17.83;11.90;;;1.80;99.90;;;;;;5068082;28;20203;-49
2022/12/09 08:32:04;;;;;;;18.57;13.47;;;1.80;99.90;;;;;;5071149;28;20221;-49
2022/12/09 08:34:31;;;;;;;17.20;11.23;;;1.90;99.90;;;;;;5054488;28;20203;-48
2022/12/09 08:36:58;;;;;;;19.00;12.67;;;1.90;99.90;;;;;;5072241;28;20221;-48
2022/12/09 08:39:25;;;;;;;19.73;12.83;;;1.90;99.90;;;;;;5072453;28;20206;-48
2022/12/09 08:41:53;;;;;;;21.47;12.53;;;1.80;99.90;;;;;;5064454;28;20661;-50
2022/12/09 08:44:21;;;;;;;20.43;13.20;;;1.80;99.90;;;;;;5074345;28;20244;-49
2022/12/09 08:46:50;;;;;;;18.23;12.20;;;1.80;99.90;;;;;;5063643;28;20676;-50
2022/12/09 08:49:19;;;;;;;18.50;13.10;;;1.80;99.90;;;;;;5066635;28;20253;-49
2022/12/09 08:51:48;;;;;;;21.93;13.27;;;1.90;99.90;;;;;;5069121;28;20292;-49
2022/12/09 08:54:15;;;;;;;18.37;12.73;;;2.00;99.90;;;;;;5071334;28;20206;-49
2022/12/09 08:56:45;;;;;;;19.00;13.88;;;2.10;99.90;;;;;;5069949;28;20478;-49
2022/12/09 08:59:14;;;;;;;19.67;13.13;;;2.10;99.90;;;;;;5061100;28;20255;-49
2022/12/09 09:01:41;;;;;;;19.40;13.20;;;2.20;99.90;;;;;;5065706;28;20219;-49
2022/12/09 09:04:10;;;;;;;20.30;13.37;;;2.20;99.90;;;;;;5069793;28;20229;-49
2022/12/09 09:06:38;;;;;;;24.33;13.67;;;2.30;99.90;;;;;;5066111;28;20685;-48
2022/12/09 09:09:05;;;;;;;26.37;16.03;;;2.30;99.90;;;;;;5074495;28;20295;-49
2022/12/09 09:11:33;;;;;;;24.30;15.07;;;2.30;99.90;;;;;;5064802;28;20254;-49
2022/12/09 09:14:02;;;;;;;19.83;14.17;;;2.40;99.90;;;;;;5072329;28;20199;-49
2022/12/09 09:16:30;;;;;;;26.60;14.20;;;2.30;99.90;;;;;;5074310;28;20252;-50
2022/12/09 09:18:57;;;;;;;21.33;14.03;;;2.40;99.90;;;;;;5074489;28;20218;-49
2022/12/09 09:21:27;;;;;;;25.47;15.53;;;2.40;99.90;;;;;;5074284;28;20213;-48
2022/12/09 09:23:54;;;;;;;24.60;16.97;;;2.40;99.90;;;;;;5073623;28;20621;-50
2022/12/09 09:26:22;;;;;;;35.33;17.40;;;2.40;99.90;;;;;;5074299;28;20745;-48
2022/12/09 09:28:50;;;;;;;25.90;16.07;;;2.40;99.90;;;;;;5064157;28;20727;-49
2022/12/09 09:31:19;;;;;;;21.50;15.20;;;2.40;99.90;;;;;;5074184;28;20252;-49
2022/12/09 09:33:47;;;;;;;27.30;16.67;;;2.40;99.90;;;;;;5073693;28;20207;-48
2022/12/09 09:36:19;;;;;;;24.63;15.43;;;2.40;99.90;;;;;;5074154;28;20206;-48
2022/12/09 09:38:46;;;;;;;22.93;15.33;;;2.40;99.90;;;;;;5073951;28;20218;-49
2022/12/09 09:41:23;;;;;;;22.77;14.17;;;2.50;99.90;;;;;;5074108;28;20223;-49
2022/12/09 09:43:50;;;;;;;20.73;13.90;;;2.50;99.90;;;;;;5072216;28;20259;-49
2022/12/09 09:46:31;;;;;;;19.23;13.60;;;2.50;99.90;;;;;;5073779;28;20199;-49
2022/12/09 09:49:01;;;;;;;25.60;14.80;;;2.40;99.90;;;;;;5073845;28;20248;-49
2022/12/09 09:51:29;;;;;;;22.07;14.97;;;2.50;99.90;;;;;;5073799;28;20199;-49
2022/12/09 09:53:56;;;;;;;25.80;15.17;;;2.50;99.90;;;;;;5073224;28;20610;-50
2022/12/09 09:56:28;;;;;;;24.67;15.77;;;2.50;99.90;;;;;;5073887;28;20260;-51
2022/12/09 09:59:06;;;;;;;20.67;13.87;;;2.50;99.90;;;;;;5073632;28;20280;-49
2022/12/09 10:01:36;;;;;;;30.10;15.00;;;2.50;99.90;;;;;;5063317;28;20229;-49
2022/12/09 10:04:12;;;;;;;27.97;14.47;;;2.60;99.90;;;;;;5064801;28;20203;-50
2022/12/09 10:06:47;;;;;;;21.60;14.03;;;2.60;99.90;;;;;;5073663;28;20207;-50
2022/12/09 10:09:20;;;;;;;23.83;14.27;;;2.60;99.90;;;;;;5073508;28;20230;-49
2022/12/09 10:11:56;;;;;;;24.00;15.73;;;2.60;99.90;;;;;;5073364;28;20203;-49
2022/12/09 10:14:33;;;;;;;22.17;14.43;;;2.60;99.90;;;;;;5071631;28;20203;-53
2022/12/09 10:17:09;;;;;;;25.23;16.97;;;2.60;99.90;;;;;;5070374;28;20202;-50
2022/12/09 10:19:46;;;;;;;30.47;16.23;;;2.70;99.90;;;;;;5064856;28;20202;-49
2022/12/09 10:22:17;;;;;;;26.97;17.77;;;2.70;99.90;;;;;;5073144;28;20700;-49
2022/12/09 10:24:48;;;;;;;29.47;17.33;;;2.80;99.90;;;;;;5072691;28;20250;-49
2022/12/09 10:27:24;;;;;;;26.07;16.83;;;2.90;99.90;;;;;;5070632;28;20226;-49
2022/12/09 10:29:56;;;;;;;29.93;21.07;;;2.90;99.90;;;;;;5072967;28;20199;-49
2022/12/09 10:32:26;;;;;;;31.90;23.30;;;3.10;99.90;;;;;;5073019;28;20207;-49
2022/12/09 10:34:55;;;;;;;29.00;19.00;;;3.10;99.90;;;;;;5072474;28;20257;-49
2022/12/09 10:37:28;;;;;;;29.23;18.67;;;3.20;99.90;;;;;;5065689;28;20227;-50
2022/12/09 10:40:01;;;;;;;31.27;19.43;;;3.20;99.90;;;;;;5071906;28;20198;-49
2022/12/09 10:45:15;;;;;;;28.30;18.40;;;3.30;99.90;;;;;;5052144;28;20210;-49
2022/12/09 10:47:50;;;;;;;24.67;17.00;;;3.30;99.90;;;;;;5052773;28;20226;-50
2022/12/09 10:50:28;;;;;;;24.83;17.07;;;3.30;99.90;;;;;;5067376;28;20579;-49
2022/12/09 10:52:55;;;;;;;25.67;18.00;;;3.40;99.90;;;;;;5072607;28;20271;-49
2022/12/09 10:55:29;;;;;;;27.73;17.47;;;3.40;99.90;;;;;;5071818;28;20626;-49
2022/12/09 10:58:11;;;;;;;32.73;17.43;;;3.40;99.90;;;;;;5070537;28;20218;-50
2022/12/09 11:00:38;;;;;;;25.33;16.87;;;3.50;99.90;;;;;;5067053;28;20273;-49
2022/12/09 11:03:24;;;;;;;32.87;18.93;;;3.60;99.90;;;;;;5071596;28;20205;-50
2022/12/09 11:05:58;;;;;;;32.47;19.13;;;3.70;99.90;;;;;;5072417;28;20202;-49
2022/12/09 11:08:25;;;;;;;28.27;17.67;;;3.70;99.90;;;;;;5072485;28;20226;-49
2022/12/09 11:10:52;;;;;;;25.27;17.43;;;3.70;99.90;;;;;;5071560;28;20214;-49
2022/12/09 11:13:22;;;;;;;28.50;19.07;;;3.70;99.90;;;;;;5062088;28;20211;-50
2022/12/09 11:15:57;;;;;;;26.70;16.97;;;3.70;99.90;;;;;;5071743;28;20294;-51
2022/12/09 11:18:29;;;;;;;23.43;15.07;;;3.80;99.90;;;;;;5072260;28;20232;-50
2022/12/09 11:21:00;;;;;;;25.93;17.77;;;3.80;99.90;;;;;;5072051;28;20199;-49
2022/12/09 11:23:27;;;;;;;24.57;15.70;;;3.90;99.90;;;;;;5069404;28;20210;-50
2022/12/09 11:25:56;;;;;;;25.10;17.00;;;3.80;99.90;;;;;;5070904;28;20570;-49
2022/12/09 11:28:26;;;;;;;29.67;18.90;;;3.90;99.90;;;;;;5071595;28;20280;-50
2022/12/09 11:30:56;;;;;;;29.63;19.23;;;4.10;99.90;;;;;;5068934;28;20207;-48
2022/12/09 11:33:29;;;;;;;30.63;19.27;;;4.10;99.90;;;;;;5055032;28;20232;-48
2022/12/09 11:36:04;;;;;;;31.50;18.93;;;4.00;99.90;;;;;;5074378;28;20206;-49
2022/12/09 11:38:38;;;;;;;27.03;17.47;;;4.00;99.90;;;;;;5070266;28;20218;-49
2022/12/09 11:44:23;;;;;;;28.17;18.27;;;4.10;99.90;;;;;;5070543;28;20214;-50
2022/12/09 11:46:57;;;;;;;33.77;19.57;;;4.20;99.90;;;;;;5059782;28;20211;-49
2022/12/09 11:49:25;;;;;;;31.65;18.33;;;4.20;99.90;;;;;;5070586;28;20441;-49
2022/12/09 11:52:04;;;;;;;35.87;19.17;;;4.20;99.90;;;;;;5067848;28;20254;-49
2022/12/09 11:54:42;;;;;;;32.23;19.03;;;4.30;99.90;;;;;;5069996;28;20206;-48
2022/12/09 11:57:20;;;;;;;29.17;17.27;;;4.20;99.90;;;;;;5060462;28;20611;-49
2022/12/09 11:59:51;;;;;;;27.03;18.07;;;4.10;99.90;;;;;;5069863;28;20229;-48
2022/12/09 12:02:27;;;;;;;27.77;17.30;;;4.00;99.90;;;;;;5071641;28;20226;-48
2022/12/09 12:04:59;;;;;;;28.67;18.40;;;3.80;99.90;;;;;;5069693;28;20671;-50
2022/12/09 12:07:35;;;;;;;36.13;19.87;;;3.80;99.90;;;;;;5069151;28;20718;-49
2022/12/09 12:10:03;;;;;;;30.87;18.90;;;3.80;99.90;;;;;;5063252;28;20195;-50
2022/12/09 12:12:44;;;;;;;33.33;20.37;;;3.90;99.90;;;;;;5071475;28;20198;-49
2022/12/09 12:15:16;;;;;;;31.47;19.23;;;4.10;99.90;;;;;;5070616;28;20210;-49
2022/12/09 12:17:49;;;;;;;32.07;19.40;;;4.10;99.90;;;;;;5069323;28;20221;-48
2022/12/09 12:20:16;;;;;;;28.40;17.70;;;4.20;99.90;;;;;;5062798;28;20203;-49
2022/12/09 12:23:09;;;;;;;30.80;17.57;;;4.20;99.90;;;;;;5071186;28;20223;-49
2022/12/09 12:25:50;;;;;;;27.90;17.60;;;4.00;99.90;;;;;;5071321;28;20328;-50
2022/12/09 12:28:32;;;;;;;28.10;18.30;;;4.00;99.90;;;;;;5070856;28;20234;-49
2022/12/09 12:31:10;;;;;;;35.97;21.00;;;3.90;99.90;;;;;;5071344;28;20232;-49
2022/12/09 12:33:51;;;;;;;31.27;17.77;;;4.00;99.90;;;;;;5067214;28;20208;-50
2022/12/09 12:36:28;;;;;;;31.07;17.80;;;4.10;99.90;;;;;;5065241;28;20199;-49
2022/12/09 12:39:06;;;;;;;34.67;19.00;;;3.90;99.90;;;;;;5071008;28;20226;-49
2022/12/09 12:41:40;;;;;;;30.97;19.33;;;3.90;99.90;;;;;;5071132;28;20258;-49
2022/12/09 12:47:13;;;;;;;27.33;17.83;;;4.00;99.90;;;;;;5063225;28;20199;-48
2022/12/09 12:50:22;;;;;;;29.60;16.50;;;4.00;99.90;;;;;;5071248;28;20211;-50
2022/12/09 12:52:58;;;;;;;33.80;19.80;;;4.00;99.90;;;;;;5040799;28;20245;-50
2022/12/09 12:55:43;;;;;;;32.72;20.67;;;4.00;99.90;;;;;;5069532;28;20495;-49
2022/12/09 12:58:30;;;;;;;32.10;17.90;;;4.00;99.90;;;;;;5068375;28;20276;-49
2022/12/09 13:01:04;;;;;;;32.03;18.17;;;4.10;99.90;;;;;;5070121;28;20209;-49